YWLM/NTL METAR and TAF weather

Enter ICAO airport designator
Station Type Date Time Source
YWLM METAR 2020/12/05 06:00 UTC NOAA

YWLM 050600Z AUTO 04005KT 9999 // NCD 27/21 Q1003


Station Type Date Time Source
YWLM Decoded METAR 2020/12/05 06:00 UTC NOAA

Station name not available
Dec 05, 2020 - 01:00 AM EST / 2020.12.05 0600 UTC
Wind: from the NE (040 degrees) at 6 MPH (5 KT):0
Visibility: greater than 7 mile(s):0
Temperature: 80 F (27 C)
Dew Point: 69 F (21 C)
Relative Humidity: 69%
Pressure (altimeter): 29.62 in. Hg (1003 hPa)
ob: YWLM 050600Z AUTO 04005KT 9999 // NCD 27/21 Q1003
cycle: 6

Station Type Date Time Source
YWLM TAF 2020/12/05 06:36 UTC NOAA

TAF YWLM 050504Z 0506/0606 07010KT 9999 -SHRA SCT035 BKN100
FM051000 01008KT 9999 -SHRA SCT035 SCT100
FM051800 29010KT 9999 NSW FEW035
FM060000 29014KT CAVOK PROB40 INTER 0506/0511 VRB25G40KT 2000 TSRA SCT010 SCT045CB

Example: see airport list